createdAt,value
2017-02-02T00:00:43.773Z,1013.22
2017-02-02T00:01:43.711Z,1013.2
2017-02-02T00:02:43.650Z,1013.19
2017-02-02T00:03:43.585Z,1013.18
2017-02-02T00:04:43.524Z,1013.18
2017-02-02T00:05:43.461Z,1013.14
2017-02-02T00:06:43.398Z,1013.15
2017-02-02T00:07:43.334Z,1013.08
2017-02-02T00:08:43.271Z,1013.09
2017-02-02T00:09:43.223Z,1013.11
2017-02-02T00:10:43.148Z,1013.11
2017-02-02T00:11:43.084Z,1013.14
2017-02-02T00:12:43.021Z,1013.18
2017-02-02T00:13:42.958Z,1013.22
2017-02-02T00:14:42.896Z,1013.23
2017-02-02T00:15:42.833Z,1013.23
2017-02-02T00:16:42.771Z,1013.22
2017-02-02T00:17:42.709Z,1013.22
2017-02-02T00:18:42.644Z,1013.24
2017-02-02T00:19:42.581Z,1013.23
2017-02-02T00:21:42.457Z,1013.19
2017-02-02T00:22:42.394Z,1013.23
2017-02-02T00:23:42.332Z,1013.23
2017-02-02T00:24:42.270Z,1013.23
2017-02-02T00:25:42.207Z,1013.23
2017-02-02T00:26:42.143Z,1013.26
2017-02-02T00:27:42.083Z,1013.22
2017-02-02T00:28:42.018Z,1013.22
2017-02-02T00:29:41.954Z,1013.22
2017-02-02T00:30:41.893Z,1013.16
2017-02-02T00:31:41.830Z,1013.2
2017-02-02T00:32:41.768Z,1013.18
2017-02-02T00:33:41.705Z,1013.17
2017-02-02T00:34:41.643Z,1013.18
2017-02-02T00:35:41.582Z,1013.21
2017-02-02T00:36:41.516Z,1013.19
2017-02-02T00:37:41.455Z,1013.21
2017-02-02T00:38:41.391Z,1013.18
2017-02-02T00:39:41.329Z,1013.18
2017-02-02T00:40:41.265Z,1013.16
2017-02-02T00:41:41.204Z,1013.16
2017-02-02T00:42:41.141Z,1013.18
2017-02-02T00:43:41.079Z,1013.13
2017-02-02T00:44:41.016Z,1013.16
2017-02-02T00:45:40.954Z,1013.13
2017-02-02T00:46:40.891Z,1013.14
2017-02-02T00:47:40.828Z,1013.16
2017-02-02T00:48:40.769Z,1013.14
2017-02-02T00:49:40.703Z,1013.14
2017-02-02T00:50:40.641Z,1013.1
2017-02-02T00:51:40.576Z,1013.05
2017-02-02T00:52:40.515Z,1013.03
2017-02-02T00:53:40.452Z,1013
2017-02-02T00:54:40.388Z,1013.05
2017-02-02T00:55:40.326Z,1013.04
2017-02-02T00:56:40.264Z,1013.01
2017-02-02T00:57:40.202Z,1012.99
2017-02-02T00:58:40.138Z,1012.97
2017-02-02T00:59:40.076Z,1012.96
2017-02-02T01:01:30.524Z,1012.92
2017-02-02T05:00:55.988Z,1011.42
2017-02-02T05:02:00.362Z,1012.12
2017-02-02T05:02:55.866Z,1011.9
2017-02-02T05:03:55.800Z,1011.65
2017-02-02T05:04:55.737Z,1011.62
2017-02-02T05:05:55.677Z,1011.62
2017-02-02T05:06:55.612Z,1011.62
2017-02-02T05:07:55.548Z,1011.55
2017-02-02T05:08:55.485Z,1011.56
2017-02-02T05:09:55.423Z,1011.56
2017-02-02T05:10:55.370Z,1011.55
2017-02-02T05:11:55.297Z,1011.49
2017-02-02T05:12:55.235Z,1011.47
2017-02-02T05:13:55.171Z,1011.46
2017-02-02T05:14:55.112Z,1011.47
2017-02-02T05:15:55.043Z,1011.46
2017-02-02T05:16:54.983Z,1011.47
2017-02-02T05:17:54.921Z,1011.42
2017-02-02T05:18:54.859Z,1011.42
2017-02-02T05:19:54.804Z,1011.41
2017-02-02T05:20:54.730Z,1011.37
2017-02-02T05:21:54.667Z,1011.35
2017-02-02T05:22:54.605Z,1011.33
2017-02-02T05:23:54.542Z,1011.3
2017-02-02T05:24:54.478Z,1011.35
2017-02-02T05:25:54.417Z,1011.37
2017-02-02T05:26:54.353Z,1011.32
2017-02-02T05:27:54.291Z,1011.36
2017-02-02T05:28:54.228Z,1011.37
2017-02-02T05:29:54.167Z,1011.35
2017-02-02T05:30:54.100Z,1011.32
2017-02-02T05:31:54.038Z,1011.33
2017-02-02T05:32:53.977Z,1011.31
2017-02-02T05:33:53.915Z,1011.27
2017-02-02T05:34:53.851Z,1011.31
2017-02-02T05:35:53.790Z,1011.29
2017-02-02T05:36:53.726Z,1011.33
2017-02-02T05:37:53.671Z,1011.29
2017-02-02T05:38:53.599Z,1011.29
2017-02-02T05:39:53.537Z,1011.26
2017-02-02T05:40:53.473Z,1011.27
2017-02-02T05:41:53.409Z,1011.27
2017-02-02T05:42:53.355Z,1011.27
2017-02-02T05:43:53.285Z,1011.25
2017-02-02T05:44:53.221Z,1011.28
2017-02-02T05:45:53.159Z,1011.26
2017-02-02T05:46:53.097Z,1011.25
2017-02-02T05:47:53.034Z,1011.11
2017-02-02T05:48:52.970Z,1011.08
2017-02-02T05:49:52.913Z,1011.06
2017-02-02T05:50:52.846Z,1011.12
2017-02-02T05:51:52.782Z,1011.07
2017-02-02T05:52:52.718Z,1011.05
2017-02-02T05:53:52.657Z,1011.06
2017-02-02T05:54:52.593Z,1011.07
2017-02-02T05:55:52.556Z,1011.1
2017-02-02T05:56:52.467Z,1011.07
2017-02-02T05:57:52.404Z,1011.08
2017-02-02T05:58:52.341Z,1011.07
2017-02-02T05:59:52.279Z,1011.02
2017-02-02T06:00:52.216Z,1010.99
2017-02-02T06:01:52.153Z,1010.99
2017-02-02T06:02:52.089Z,1011.02
2017-02-02T06:03:52.027Z,1011.05
2017-02-02T06:04:51.965Z,1010.98
2017-02-02T06:05:51.906Z,1010.99
2017-02-02T06:06:51.836Z,1010.98
2017-02-02T06:07:51.775Z,1011.03
2017-02-02T06:08:51.711Z,1011.03
2017-02-02T06:09:51.713Z,1011.06
2017-02-02T06:10:51.586Z,1011.05
2017-02-02T06:11:51.523Z,1011.02
2017-02-02T06:12:51.459Z,1011.06
2017-02-02T06:13:51.396Z,1011.09
2017-02-02T06:14:51.334Z,1011.05
2017-02-02T06:15:51.272Z,1011.03
2017-02-02T06:16:51.209Z,1011.01
2017-02-02T06:17:51.145Z,1011.01
2017-02-02T06:18:51.081Z,1011.03
2017-02-02T06:19:51.019Z,1011.02
2017-02-02T06:20:50.960Z,1010.99
2017-02-02T06:21:50.899Z,1010.93
2017-02-02T06:22:50.830Z,1010.95
2017-02-02T06:23:50.768Z,1010.93
2017-02-02T06:24:50.706Z,1010.9
2017-02-02T06:25:50.642Z,1010.89
2017-02-02T06:26:50.579Z,1010.93
2017-02-02T06:27:50.520Z,1010.89
2017-02-02T06:28:50.453Z,1010.89
2017-02-02T06:29:50.389Z,1010.88
2017-02-02T06:30:50.325Z,1010.85
2017-02-02T06:31:50.263Z,1010.87
2017-02-02T06:32:50.201Z,1010.89
2017-02-02T06:33:50.141Z,1010.86
2017-02-02T06:34:50.074Z,1010.88
2017-02-02T06:35:50.013Z,1010.88
2017-02-02T06:36:49.947Z,1010.89
2017-02-02T06:37:49.884Z,1010.85
2017-02-02T06:38:49.823Z,1010.9
2017-02-02T06:39:49.763Z,1010.86
2017-02-02T06:40:49.697Z,1010.84
2017-02-02T06:41:49.635Z,1010.88
2017-02-02T06:42:49.572Z,1010.84
2017-02-02T06:43:49.508Z,1010.85
2017-02-02T06:44:49.444Z,1010.84
2017-02-02T06:45:49.383Z,1010.9
2017-02-02T06:46:49.320Z,1010.86
2017-02-02T06:47:49.255Z,1010.88
2017-02-02T06:48:49.193Z,1010.87
2017-02-02T06:49:49.129Z,1010.87
2017-02-02T06:50:49.066Z,1010.85
2017-02-02T06:51:49.004Z,1010.85
2017-02-02T06:52:48.941Z,1010.81
2017-02-02T06:53:48.879Z,1010.82
2017-02-02T06:54:48.815Z,1010.75
2017-02-02T06:55:48.752Z,1010.81
2017-02-02T06:56:48.689Z,1010.77
2017-02-02T06:57:48.625Z,1010.73
2017-02-02T06:58:48.562Z,1010.75
2017-02-02T06:59:48.499Z,1010.78
2017-02-02T07:00:48.437Z,1010.75
2017-02-02T07:01:48.373Z,1010.73
2017-02-02T07:02:48.311Z,1010.73
2017-02-02T07:03:48.252Z,1010.77
2017-02-02T07:04:48.186Z,1010.77
2017-02-02T07:05:48.124Z,1010.76
2017-02-02T07:06:48.058Z,1010.74
2017-02-02T07:07:48.018Z,1010.68
2017-02-02T07:08:47.935Z,1010.66
2017-02-02T07:09:47.869Z,1010.62
2017-02-02T07:10:47.808Z,1010.53
2017-02-02T07:11:47.743Z,1010.52
2017-02-02T07:12:47.681Z,1010.56
2017-02-02T07:13:47.617Z,1010.52
2017-02-02T07:14:47.555Z,1010.59
2017-02-02T07:15:47.493Z,1010.55
2017-02-02T07:16:47.428Z,1010.55
2017-02-02T07:17:47.366Z,1010.55
2017-02-02T07:18:47.302Z,1010.52
2017-02-02T07:19:47.241Z,1010.46
2017-02-02T07:20:47.175Z,1010.49
2017-02-02T07:21:47.114Z,1010.52
2017-02-02T07:22:47.052Z,1010.53
2017-02-02T07:23:46.988Z,1010.5
2017-02-02T07:24:46.926Z,1010.58
2017-02-02T07:25:46.864Z,1010.6
2017-02-02T07:26:46.800Z,1010.61
2017-02-02T07:27:46.737Z,1010.62
2017-02-02T07:28:46.672Z,1010.62
2017-02-02T07:29:46.613Z,1010.62
2017-02-02T07:30:46.546Z,1010.62
2017-02-02T07:31:46.485Z,1010.65
2017-02-02T07:32:46.423Z,1010.64
2017-02-02T07:33:46.359Z,1010.63
2017-02-02T07:34:46.294Z,1010.62
2017-02-02T07:35:46.232Z,1010.64
2017-02-02T07:36:46.170Z,1010.68
2017-02-02T07:37:46.107Z,1010.62
2017-02-02T07:38:46.045Z,1010.64
2017-02-02T07:39:45.979Z,1010.64
2017-02-02T07:40:45.923Z,1010.65
2017-02-02T07:41:45.860Z,1010.64
2017-02-02T07:42:45.795Z,1010.66
2017-02-02T07:43:45.731Z,1010.62
2017-02-02T07:44:45.665Z,1010.54
2017-02-02T07:45:45.601Z,1010.62
2017-02-02T07:46:45.539Z,1010.61
2017-02-02T07:47:45.477Z,1010.59
2017-02-02T07:48:45.415Z,1010.6
2017-02-02T07:49:45.351Z,1010.61
2017-02-02T07:50:45.287Z,1010.61
2017-02-02T07:51:45.228Z,1010.6
2017-02-02T07:52:45.161Z,1010.59
2017-02-02T07:53:45.097Z,1010.54
2017-02-02T07:54:45.039Z,1010.53
2017-02-02T07:55:44.973Z,1010.5
2017-02-02T07:56:44.912Z,1010.51
2017-02-02T07:57:44.847Z,1010.49
2017-02-02T07:58:44.783Z,1010.45
2017-02-02T07:59:44.720Z,1010.46
2017-02-02T08:00:44.658Z,1010.43
2017-02-02T08:01:44.602Z,1010.44
2017-02-02T08:02:44.531Z,1010.5
2017-02-02T08:03:44.474Z,1010.47
2017-02-02T08:04:44.405Z,1010.48
2017-02-02T08:05:44.343Z,1010.41
2017-02-02T08:06:44.280Z,1010.43
2017-02-02T08:07:44.216Z,1010.44
2017-02-02T08:08:44.153Z,1010.41
2017-02-02T08:09:44.091Z,1010.39
2017-02-02T08:10:44.179Z,1010.4
2017-02-02T08:11:43.964Z,1010.4
2017-02-02T08:12:43.901Z,1010.39
2017-02-02T08:13:43.839Z,1010.4
2017-02-02T08:14:43.775Z,1010.43
2017-02-02T08:15:43.711Z,1010.41
2017-02-02T08:16:43.650Z,1010.41
2017-02-02T08:17:43.590Z,1010.4
2017-02-02T08:18:43.523Z,1010.39
2017-02-02T08:19:43.460Z,1010.34
2017-02-02T08:20:43.398Z,1010.33
2017-02-02T08:21:43.336Z,1010.37
2017-02-02T08:22:43.271Z,1010.34
2017-02-02T08:23:43.207Z,1010.34
2017-02-02T08:24:43.146Z,1010.33
2017-02-02T08:25:43.082Z,1010.32
2017-02-02T08:26:43.020Z,1010.32
2017-02-02T08:27:42.958Z,1010.32
2017-02-02T08:28:42.894Z,1010.31
2017-02-02T08:29:42.831Z,1010.3
2017-02-02T08:30:42.767Z,1010.27
2017-02-02T08:31:42.706Z,1010.31
2017-02-02T08:32:42.643Z,1010.31
2017-02-02T08:33:42.578Z,1010.35
2017-02-02T08:34:42.516Z,1010.32
2017-02-02T08:35:42.452Z,1010.29
2017-02-02T08:36:42.389Z,1010.27
2017-02-02T08:37:42.326Z,1010.26
2017-02-02T08:38:42.263Z,1010.24
2017-02-02T08:39:42.200Z,1010.23
2017-02-02T08:40:42.135Z,1010.24
2017-02-02T08:41:42.077Z,1010.24
2017-02-02T08:42:42.213Z,1010.26
2017-02-02T08:43:41.949Z,1010.23
2017-02-02T08:44:41.884Z,1010.19
2017-02-02T08:45:41.823Z,1010.24
2017-02-02T08:46:41.760Z,1010.23
2017-02-02T08:47:41.696Z,1010.15
2017-02-02T08:48:41.633Z,1010.15
2017-02-02T08:49:41.572Z,1010.12
2017-02-02T08:50:41.507Z,1010.11
2017-02-02T08:51:41.442Z,1010.05
2017-02-02T08:52:41.380Z,1010.06
2017-02-02T08:53:41.324Z,1010.01
2017-02-02T08:54:41.256Z,1010.03
2017-02-02T08:55:41.192Z,1009.93
2017-02-02T08:56:41.131Z,1009.91
2017-02-02T08:57:41.067Z,1009.91
2017-02-02T08:58:41.004Z,1009.94
2017-02-02T08:59:40.939Z,1010
2017-02-02T09:00:40.877Z,1009.97
2017-02-02T09:01:40.815Z,1010
2017-02-02T09:02:40.751Z,1009.99
2017-02-02T09:03:40.688Z,1009.96
2017-02-02T09:04:40.627Z,1009.97
2017-02-02T09:05:40.562Z,1009.96
2017-02-02T09:06:40.502Z,1009.94
2017-02-02T09:07:40.437Z,1009.9
2017-02-02T09:08:40.374Z,1009.87
2017-02-02T09:09:40.310Z,1009.84
2017-02-02T09:10:40.248Z,1009.84
2017-02-02T09:11:40.186Z,1009.83
2017-02-02T09:12:40.122Z,1009.82
2017-02-02T09:13:40.058Z,1009.8
2017-02-02T09:14:39.997Z,1009.82
2017-02-02T09:15:39.938Z,1009.81
2017-02-02T09:16:39.870Z,1009.82
2017-02-02T09:17:39.806Z,1009.82
2017-02-02T09:18:39.743Z,1009.83
2017-02-02T09:19:39.682Z,1009.86
2017-02-02T09:20:39.617Z,1009.83
2017-02-02T09:21:39.554Z,1009.83
2017-02-02T09:22:39.490Z,1009.79
2017-02-02T09:23:39.431Z,1009.86
2017-02-02T09:24:39.367Z,1009.83
2017-02-02T09:25:39.653Z,1009.84
2017-02-02T09:26:39.243Z,1009.82
2017-02-02T09:27:39.178Z,1009.81
2017-02-02T09:28:39.118Z,1009.84
2017-02-02T09:29:39.054Z,1009.82
2017-02-02T09:30:39.240Z,1009.84
2017-02-02T09:31:38.928Z,1009.91
2017-02-02T09:32:38.866Z,1009.85
2017-02-02T09:33:38.804Z,1009.89
2017-02-02T09:34:38.745Z,1009.86
2017-02-02T09:35:38.981Z,1009.88
2017-02-02T09:36:38.615Z,1009.86
2017-02-02T09:38:38.490Z,1009.88
2017-02-02T09:39:38.427Z,1009.87
2017-02-02T09:40:38.675Z,1009.9
2017-02-02T09:41:38.306Z,1009.89
2017-02-02T09:42:38.240Z,1009.92
2017-02-02T09:43:38.176Z,1009.9
2017-02-02T09:44:38.114Z,1009.9
2017-02-02T09:45:38.204Z,1009.94
2017-02-02T09:46:37.990Z,1009.93
2017-02-02T09:47:37.928Z,1009.96
2017-02-02T09:48:37.866Z,1009.95
2017-02-02T09:49:37.802Z,1009.96
2017-02-02T09:50:37.988Z,1009.92
2017-02-02T09:51:37.677Z,1009.93
2017-02-02T09:52:37.615Z,1009.86
2017-02-02T09:53:37.553Z,1009.9
2017-02-02T09:54:37.490Z,1009.92
2017-02-02T09:55:37.429Z,1009.87
2017-02-02T09:56:37.366Z,1009.88
2017-02-02T09:57:37.304Z,1009.89
2017-02-02T09:58:37.243Z,1009.9
2017-02-02T09:59:37.180Z,1009.89
2017-02-02T10:00:37.116Z,1009.82
2017-02-02T10:01:37.053Z,1009.87
2017-02-02T10:02:36.994Z,1009.83
2017-02-02T10:03:36.929Z,1009.81
2017-02-02T10:04:36.865Z,1009.83
2017-02-02T10:06:36.744Z,1009.8
2017-02-02T10:07:36.682Z,1009.78
2017-02-02T10:08:36.619Z,1009.84
2017-02-02T10:09:36.556Z,1009.82
2017-02-02T10:10:36.502Z,1009.81
2017-02-02T10:11:36.432Z,1009.76
2017-02-02T10:12:36.369Z,1009.68
2017-02-02T10:13:36.308Z,1009.65
2017-02-02T10:14:36.246Z,1009.61
2017-02-02T10:15:36.186Z,1009.64
2017-02-02T10:16:36.124Z,1009.59
2017-02-02T10:17:36.060Z,1009.6
2017-02-02T10:18:36.002Z,1009.6
2017-02-02T10:19:35.937Z,1009.61
2017-02-02T10:20:35.876Z,1009.53
2017-02-02T10:21:35.815Z,1009.57
2017-02-02T10:22:35.750Z,1009.54
2017-02-02T10:23:35.686Z,1009.56
2017-02-02T10:24:35.625Z,1009.54
2017-02-02T10:25:35.567Z,1009.49
2017-02-02T10:26:35.503Z,1009.5
2017-02-02T10:27:35.438Z,1009.52
2017-02-02T10:28:35.377Z,1009.51
2017-02-02T10:29:35.318Z,1009.49
2017-02-02T10:30:35.276Z,1009.48
2017-02-02T10:31:35.191Z,1009.46
2017-02-02T10:32:35.135Z,1009.43
2017-02-02T10:33:35.068Z,1009.45
2017-02-02T10:34:35.007Z,1009.43
2017-02-02T10:35:35.196Z,1009.41
2017-02-02T10:36:34.882Z,1009.43
2017-02-02T10:37:34.820Z,1009.45
2017-02-02T10:38:34.758Z,1009.45
2017-02-02T10:39:34.697Z,1009.43
2017-02-02T10:40:34.634Z,1009.46
2017-02-02T10:41:34.571Z,1009.45
2017-02-02T10:42:34.511Z,1009.42
2017-02-02T10:43:34.446Z,1009.45
2017-02-02T10:44:34.382Z,1009.41
2017-02-02T10:45:34.568Z,1009.4
2017-02-02T10:46:34.257Z,1009.33
2017-02-02T10:47:34.195Z,1009.37
2017-02-02T10:48:34.385Z,1009.38
2017-02-02T10:49:34.068Z,1009.36
2017-02-02T10:50:34.006Z,1009.38
2017-02-02T10:51:33.941Z,1009.34
2017-02-02T10:52:33.880Z,1009.33
2017-02-02T10:53:33.817Z,1009.31
2017-02-02T10:54:33.753Z,1009.3
2017-02-02T10:55:33.690Z,1009.29
2017-02-02T10:56:33.628Z,1009.33
2017-02-02T10:57:33.566Z,1009.31
2017-02-02T10:58:33.499Z,1009.3
2017-02-02T10:59:33.436Z,1009.33
2017-02-02T11:00:33.535Z,1009.24
2017-02-02T11:01:33.311Z,1009.25
2017-02-02T11:02:33.247Z,1009.21
2017-02-02T11:03:33.186Z,1009.22
2017-02-02T11:04:33.123Z,1009.16
2017-02-02T11:05:33.060Z,1009.18
2017-02-02T11:06:32.999Z,1009.12
2017-02-02T11:07:32.933Z,1009.14
2017-02-02T11:08:32.870Z,1009.12
2017-02-02T11:09:32.808Z,1009.12
2017-02-02T11:10:32.743Z,1009.12
2017-02-02T11:11:32.681Z,1009.06
2017-02-02T11:12:32.618Z,1009.07
2017-02-02T11:13:32.556Z,1009.06
2017-02-02T11:14:32.490Z,1009.03
2017-02-02T11:15:32.430Z,1009.06
2017-02-02T11:16:32.366Z,1009.03
2017-02-02T11:17:32.301Z,1009.08
2017-02-02T11:18:32.239Z,1009.1
2017-02-02T11:19:32.176Z,1009.09
2017-02-02T11:20:32.114Z,1009.09
2017-02-02T11:21:32.061Z,1009.08
2017-02-02T11:22:31.998Z,1009.06
2017-02-02T11:23:31.927Z,1008.99
2017-02-02T11:24:31.871Z,1008.95
2017-02-02T11:25:32.099Z,1008.93
2017-02-02T11:26:31.736Z,1008.93
2017-02-02T11:27:31.675Z,1008.88
2017-02-02T11:28:31.610Z,1008.87
2017-02-02T11:29:31.548Z,1008.96
2017-02-02T11:30:31.485Z,1008.98
2017-02-02T11:31:31.432Z,1008.94
2017-02-02T11:32:31.362Z,1008.93
2017-02-02T11:33:31.300Z,1008.95
2017-02-02T11:34:31.237Z,1008.92
2017-02-02T11:35:31.173Z,1008.93
2017-02-02T11:36:31.111Z,1008.93
2017-02-02T11:37:31.049Z,1008.93
2017-02-02T11:38:30.985Z,1008.94
2017-02-02T11:39:30.924Z,1008.93
2017-02-02T11:40:30.865Z,1008.92
2017-02-02T11:41:30.817Z,1008.93
2017-02-02T11:42:30.736Z,1008.9
2017-02-02T11:43:30.674Z,1008.87
2017-02-02T11:44:30.612Z,1008.87
2017-02-02T11:45:30.553Z,1008.82
2017-02-02T11:46:30.488Z,1008.85
2017-02-02T11:47:30.434Z,1008.8
2017-02-02T11:48:30.362Z,1008.83
2017-02-02T11:49:30.300Z,1008.82
2017-02-02T11:50:30.236Z,1008.8
2017-02-02T11:51:30.174Z,1008.79
2017-02-02T11:52:30.113Z,1008.79
2017-02-02T11:53:30.050Z,1008.74
2017-02-02T11:54:29.987Z,1008.69
2017-02-02T11:55:29.928Z,1008.67
2017-02-02T11:56:29.861Z,1008.69
2017-02-02T11:57:29.803Z,1008.65
2017-02-02T11:58:29.737Z,1008.65
2017-02-02T11:59:29.680Z,1008.64
2017-02-02T12:00:29.614Z,1008.65
2017-02-02T12:01:29.755Z,1008.64
2017-02-02T12:02:29.489Z,1008.68
2017-02-02T12:03:29.430Z,1008.68
2017-02-02T12:04:29.366Z,1008.72
2017-02-02T12:05:29.303Z,1008.71
2017-02-02T12:06:29.241Z,1008.64
2017-02-02T12:07:29.430Z,1008.65
2017-02-02T12:08:29.117Z,1008.59
2017-02-02T12:09:29.057Z,1008.61
2017-02-02T12:10:29.294Z,1008.59
2017-02-02T12:11:28.933Z,1008.59
2017-02-02T12:12:28.876Z,1008.59
2017-02-02T12:13:28.813Z,1008.59
2017-02-02T12:14:28.744Z,1008.56
2017-02-02T12:15:28.983Z,1008.58
2017-02-02T12:16:28.620Z,1008.5
2017-02-02T12:17:28.568Z,1008.55
2017-02-02T12:18:28.498Z,1008.49
2017-02-02T12:19:28.435Z,1008.51
2017-02-02T12:20:28.372Z,1008.48
2017-02-02T12:21:28.311Z,1008.46
2017-02-02T12:22:28.249Z,1008.42
2017-02-02T12:23:28.186Z,1008.45
2017-02-02T12:24:28.209Z,1008.44
2017-02-02T12:25:28.069Z,1008.42
2017-02-02T12:26:27.998Z,1008.42
2017-02-02T12:27:27.942Z,1008.45
2017-02-02T12:28:27.882Z,1008.38
2017-02-02T12:29:27.813Z,1008.36
2017-02-02T12:30:28.050Z,1008.35
2017-02-02T12:31:27.686Z,1008.32
2017-02-02T12:32:27.624Z,1008.27
2017-02-02T12:33:27.581Z,1008.25
2017-02-02T12:34:27.499Z,1008.28
2017-02-02T12:35:27.738Z,1008.26
2017-02-02T12:36:27.377Z,1008.29
2017-02-02T12:37:27.314Z,1008.25
2017-02-02T12:38:27.251Z,1008.3
2017-02-02T12:39:27.189Z,1008.31
2017-02-02T12:40:27.129Z,1008.33
2017-02-02T12:41:27.066Z,1008.33
2017-02-02T12:42:27.006Z,1008.37
2017-02-02T12:43:26.943Z,1008.38
2017-02-02T12:44:26.882Z,1008.39
2017-02-02T12:45:26.817Z,1008.41
2017-02-02T12:46:26.755Z,1008.44
2017-02-02T12:47:26.697Z,1008.42
2017-02-02T12:48:26.645Z,1008.45
2017-02-02T12:49:26.572Z,1008.43
2017-02-02T12:50:26.507Z,1008.42
2017-02-02T12:51:26.445Z,1008.4
2017-02-02T12:52:26.382Z,1008.39
2017-02-02T12:53:26.321Z,1008.42
2017-02-02T12:54:26.265Z,1008.4
2017-02-02T12:55:26.200Z,1008.41
2017-02-02T12:56:26.134Z,1008.38
2017-02-02T12:57:26.072Z,1008.4
2017-02-02T12:58:26.017Z,1008.39
2017-02-02T12:59:25.949Z,1008.41
2017-02-02T13:00:25.888Z,1008.37
2017-02-02T13:01:25.827Z,1008.38
2017-02-02T13:02:25.781Z,1008.37
2017-02-02T13:03:25.700Z,1008.35
2017-02-02T13:04:25.638Z,1008.3
2017-02-02T13:05:25.578Z,1008.31
2017-02-02T13:06:25.762Z,1008.26
2017-02-02T13:07:25.450Z,1008.29
2017-02-02T13:08:25.390Z,1008.26
2017-02-02T13:09:25.327Z,1008.26
2017-02-02T13:10:25.264Z,1008.21
2017-02-02T13:11:25.204Z,1008.2
2017-02-02T13:12:25.141Z,1008.22
2017-02-02T13:13:25.078Z,1008.22
2017-02-02T13:14:25.015Z,1008.24
2017-02-02T13:15:24.958Z,1008.19
2017-02-02T13:16:24.891Z,1008.24
2017-02-02T13:17:24.831Z,1008.21
2017-02-02T13:18:24.769Z,1008.16
2017-02-02T13:19:24.706Z,1008.16
2017-02-02T13:20:24.645Z,1008.09
2017-02-02T13:21:24.581Z,1008.12
2017-02-02T13:22:24.530Z,1008.12
2017-02-02T13:23:24.457Z,1008.13
2017-02-02T13:24:24.399Z,1008.13
2017-02-02T13:25:24.336Z,1008.07
2017-02-02T13:26:24.273Z,1008.05
2017-02-02T13:27:24.210Z,1008.05
2017-02-02T13:28:24.147Z,1008.03
2017-02-02T13:29:24.088Z,1007.93
2017-02-02T13:30:24.026Z,1007.89
2017-02-02T13:31:23.963Z,1007.88
2017-02-02T13:32:23.900Z,1007.88
2017-02-02T13:33:23.839Z,1007.88
2017-02-02T13:34:23.778Z,1007.83
2017-02-02T13:35:23.965Z,1007.84
2017-02-02T13:36:23.652Z,1007.83
2017-02-02T13:37:23.590Z,1007.85
2017-02-02T13:38:23.531Z,1007.85
2017-02-02T13:39:23.466Z,1007.83
2017-02-02T13:40:23.719Z,1007.85
2017-02-02T13:41:23.344Z,1007.8
2017-02-02T13:42:23.283Z,1007.8
2017-02-02T13:43:23.222Z,1007.83
2017-02-02T13:44:23.159Z,1007.84
2017-02-02T13:45:23.097Z,1007.76
2017-02-02T13:46:23.037Z,1007.8
2017-02-02T13:47:22.975Z,1007.8
2017-02-02T13:48:22.914Z,1007.81
2017-02-02T13:49:22.853Z,1007.83
2017-02-02T13:50:22.790Z,1007.84
2017-02-02T13:51:22.728Z,1007.84
